createdAt,value
2019-01-14T00:02:04.982Z,98420.07
2019-01-14T00:04:33.655Z,98430.06
2019-01-14T00:07:02.198Z,98428.36
2019-01-14T00:09:31.449Z,98435.44
2019-01-14T00:12:00.167Z,98441.37
2019-01-14T00:14:28.765Z,98447.11
2019-01-14T00:16:57.366Z,98457.74
2019-01-14T00:19:26.116Z,98457.44
2019-01-14T00:21:54.640Z,98458.64
2019-01-14T00:24:23.354Z,98467.67
2019-01-14T00:26:52.367Z,98472.39
2019-01-14T00:29:21.365Z,98475.98
2019-01-14T00:31:50.050Z,98490.05
2019-01-14T00:34:19.087Z,98499.03
2019-01-14T00:36:48.038Z,98499.34
2019-01-14T00:39:16.678Z,98509.09
2019-01-14T00:41:45.218Z,98524.13
2019-01-14T00:44:13.805Z,98533.73
2019-01-14T00:46:42.343Z,98539.06
2019-01-14T00:49:10.938Z,98540.97
2019-01-14T00:51:39.435Z,98532.27
2019-01-14T00:54:07.981Z,98547.66
2019-01-14T00:56:36.866Z,98548.72
2019-01-14T00:59:05.914Z,98567.05
2019-01-14T01:01:34.484Z,98566.94
2019-01-14T01:04:03.314Z,98573.23
2019-01-14T01:06:31.899Z,98576.59
2019-01-14T01:09:00.873Z,98594.56
2019-01-14T01:11:29.454Z,98596.27
2019-01-14T01:13:58.007Z,98599.92
2019-01-14T01:16:26.511Z,98611.81
2019-01-14T01:18:55.148Z,98612.88
2019-01-14T01:21:24.058Z,98610.97
2019-01-14T01:23:52.654Z,98618.95
2019-01-14T01:26:21.175Z,98619.25
2019-01-14T01:28:50.191Z,98624.81
2019-01-14T01:31:18.702Z,98628.84
2019-01-14T01:33:47.292Z,98632.97
2019-01-14T01:36:15.811Z,98649.58
2019-01-14T01:38:44.377Z,98653.95
2019-01-14T01:41:12.880Z,98658.15
2019-01-14T01:43:41.457Z,98658.41
2019-01-14T01:46:09.979Z,98656.30
2019-01-14T01:48:38.610Z,98659.39
2019-01-14T01:51:07.108Z,98665.75
2019-01-14T01:53:35.715Z,98685.31
2019-01-14T01:56:04.485Z,98690.97
2019-01-14T01:58:33.081Z,98718.02
2019-01-14T02:01:01.938Z,98711.16
2019-01-14T02:03:30.522Z,98725.29
2019-01-14T02:05:59.028Z,98718.75
2019-01-14T02:08:27.594Z,98732.41
2019-01-14T02:10:56.116Z,98742.21
2019-01-14T02:13:24.688Z,98754.54
2019-01-14T02:15:53.479Z,98748.75
2019-01-14T02:18:22.033Z,98753.55
2019-01-14T02:20:50.533Z,98759.50
2019-01-14T02:23:19.138Z,98765.89
2019-01-14T02:25:47.943Z,98765.04
2019-01-14T02:28:16.538Z,98775.17
2019-01-14T02:30:45.063Z,98787.77
2019-01-14T02:33:13.660Z,98786.41
2019-01-14T02:35:42.582Z,98791.25
2019-01-14T02:38:11.213Z,98791.36
2019-01-14T02:40:39.719Z,98799.44
2019-01-14T02:43:08.266Z,98797.63
2019-01-14T02:45:36.797Z,98791.91
2019-01-14T02:48:05.383Z,98812.57
2019-01-14T02:50:33.917Z,98822.44
2019-01-14T02:53:02.528Z,98829.52
2019-01-14T02:55:31.082Z,98842.52
2019-01-14T02:57:59.633Z,98860.17
2019-01-14T03:00:28.444Z,98847.72
2019-01-14T03:02:57.282Z,98865.31
2019-01-14T03:05:26.203Z,98872.00
2019-01-14T03:07:54.772Z,98876.34
2019-01-14T03:10:23.674Z,98893.70
2019-01-14T03:12:52.345Z,98887.98
2019-01-14T03:15:21.039Z,98905.72
2019-01-14T03:17:49.617Z,98910.02
2019-01-14T03:20:18.250Z,98914.70
2019-01-14T03:22:47.044Z,98922.14
2019-01-14T03:25:16.029Z,98922.95
2019-01-14T03:27:44.961Z,98931.64
2019-01-14T03:30:15.852Z,98933.55
2019-01-14T03:32:44.691Z,98958.67
2019-01-14T03:35:13.362Z,98949.66
2019-01-14T03:37:41.926Z,98970.03
2019-01-14T03:40:13.288Z,98965.00
2019-01-14T03:42:42.228Z,98959.94
2019-01-14T03:45:12.289Z,98973.17
2019-01-14T03:47:41.342Z,98983.02
2019-01-14T03:50:16.374Z,98985.19
2019-01-14T03:52:45.018Z,98985.27
2019-01-14T03:55:13.867Z,98999.20
2019-01-14T03:57:43.449Z,98992.67
2019-01-14T04:00:14.437Z,98995.23
2019-01-14T04:02:43.079Z,99008.25
2019-01-14T04:05:11.712Z,99010.61
2019-01-14T04:07:40.325Z,99019.37
2019-01-14T04:10:14.835Z,99025.70
2019-01-14T04:12:43.562Z,99034.91
2019-01-14T04:15:15.305Z,99044.00
2019-01-14T04:17:44.991Z,99049.45
2019-01-14T04:20:19.589Z,99049.78
2019-01-14T04:22:48.451Z,99037.99
2019-01-14T04:25:17.324Z,99062.52
2019-01-14T04:27:45.959Z,99057.49
2019-01-14T04:30:22.334Z,99074.10
2019-01-14T04:32:51.455Z,99076.38
2019-01-14T04:35:20.417Z,99069.51
2019-01-14T04:37:49.070Z,99078.00
2019-01-14T04:40:17.644Z,99078.59
2019-01-14T04:42:46.254Z,99087.91
2019-01-14T04:45:15.969Z,99097.39
2019-01-14T04:47:44.564Z,99100.69
2019-01-14T04:50:16.057Z,99117.21
2019-01-14T04:52:45.055Z,99125.42
2019-01-14T04:55:13.679Z,99129.52
2019-01-14T05:00:06.820Z,99133.05
2019-01-14T05:02:35.450Z,99137.14
2019-01-14T05:05:06.493Z,99145.34
2019-01-14T05:07:35.082Z,99146.70
2019-01-14T05:10:08.892Z,99148.28
2019-01-14T05:12:37.470Z,99155.25
2019-01-14T05:15:09.416Z,99155.21
2019-01-14T05:17:38.387Z,99150.33
2019-01-14T05:20:10.131Z,99153.00
2019-01-14T05:22:39.135Z,99157.88
2019-01-14T05:25:08.673Z,99153.00
2019-01-14T05:27:37.255Z,99156.26
2019-01-14T05:30:11.829Z,99157.07
2019-01-14T05:32:40.417Z,99150.48
2019-01-14T05:35:09.970Z,99161.59
2019-01-14T05:37:38.532Z,99160.20
2019-01-14T05:40:19.565Z,99159.65
2019-01-14T05:42:48.088Z,99157.72
2019-01-14T05:45:16.773Z,99162.67
2019-01-14T05:47:45.321Z,99164.61
2019-01-14T05:50:15.383Z,99174.64
2019-01-14T05:52:43.990Z,99169.72
2019-01-14T05:55:13.746Z,99172.52
2019-01-14T05:57:42.298Z,99161.72
2019-01-14T06:00:19.779Z,99168.80
2019-01-14T06:02:48.822Z,99173.97
2019-01-14T06:05:17.337Z,99178.03
2019-01-14T06:07:45.919Z,99180.27
2019-01-14T06:10:14.524Z,99182.23
2019-01-14T06:12:43.129Z,99186.02
2019-01-14T06:15:14.280Z,99179.82
2019-01-14T06:17:42.929Z,99175.22
2019-01-14T06:20:18.101Z,99180.63
2019-01-14T06:22:46.730Z,99176.06
2019-01-14T06:25:15.714Z,99186.61
2019-01-14T06:27:44.349Z,99198.25
2019-01-14T06:30:24.968Z,99207.99
2019-01-14T06:32:54.945Z,99204.23
2019-01-14T06:35:23.836Z,99210.18
2019-01-14T06:37:52.812Z,99217.52
2019-01-14T06:40:22.065Z,99228.34
2019-01-14T06:42:50.659Z,99230.80
2019-01-14T06:45:19.241Z,99236.75
2019-01-14T06:47:48.276Z,99247.30
2019-01-14T06:50:19.458Z,99253.50
2019-01-14T06:52:48.104Z,99263.49
2019-01-14T06:55:18.181Z,99282.18
2019-01-14T06:57:46.881Z,99283.21
2019-01-14T07:00:20.842Z,99277.82
2019-01-14T07:02:49.543Z,99272.66
2019-01-14T07:05:18.385Z,99288.38
2019-01-14T07:07:47.007Z,99307.03
2019-01-14T07:10:24.281Z,99308.14
2019-01-14T07:12:52.916Z,99329.53
2019-01-14T07:15:21.851Z,99331.41
2019-01-14T07:17:50.457Z,99336.31
2019-01-14T07:20:19.844Z,99352.28
2019-01-14T07:22:48.848Z,99353.62
2019-01-14T07:25:17.532Z,99361.47
2019-01-14T07:27:46.199Z,99363.91
2019-01-14T07:30:19.730Z,99382.33
2019-01-14T07:32:48.496Z,99376.37
2019-01-14T07:35:17.351Z,99373.11
2019-01-14T07:37:46.361Z,99376.64
2019-01-14T07:40:17.119Z,99384.22
2019-01-14T07:42:45.689Z,99388.55
2019-01-14T07:45:16.326Z,99393.64
2019-01-14T07:47:45.024Z,99403.93
2019-01-14T07:50:24.141Z,99396.90
2019-01-14T07:55:37.223Z,99417.19
2019-01-14T07:58:09.068Z,99422.36
2019-01-14T08:00:39.656Z,99424.01
2019-01-14T08:03:08.212Z,99423.73
2019-01-14T08:05:37.166Z,99437.79
2019-01-14T08:08:05.724Z,99443.48
2019-01-14T08:10:34.654Z,99443.47
2019-01-14T08:13:03.303Z,99452.14
2019-01-14T08:15:31.887Z,99454.84
2019-01-14T08:18:00.469Z,99462.14
2019-01-14T08:20:29.015Z,99458.09
2019-01-14T08:22:57.630Z,99463.77
2019-01-14T08:25:26.540Z,99474.03
2019-01-14T08:27:55.524Z,99467.25
2019-01-14T08:30:24.924Z,99469.17
2019-01-14T08:32:53.771Z,99475.95
2019-01-14T08:35:22.670Z,99477.29
2019-01-14T08:37:51.409Z,99488.66
2019-01-14T08:40:21.295Z,99480.55
2019-01-14T08:42:50.183Z,99491.37
2019-01-14T08:45:19.060Z,99487.57
2019-01-14T08:47:47.689Z,99501.93
2019-01-14T08:50:18.089Z,99500.04
2019-01-14T08:52:46.772Z,99503.02
2019-01-14T08:55:15.384Z,99503.55
2019-01-14T08:57:43.967Z,99500.03
2019-01-14T09:00:15.811Z,99496.77
2019-01-14T09:02:44.521Z,99503.02
2019-01-14T09:05:13.217Z,99514.12
2019-01-14T09:07:41.931Z,99510.06
2019-01-14T09:10:16.337Z,99510.60
2019-01-14T09:12:45.079Z,99519.81
2019-01-14T09:15:16.885Z,99526.29
2019-01-14T09:17:45.591Z,99521.95
2019-01-14T09:20:16.662Z,99530.61
2019-01-14T09:22:45.341Z,99544.70
2019-01-14T09:25:13.928Z,99544.16
2019-01-14T09:27:42.638Z,99536.57
2019-01-14T09:30:17.217Z,99541.98
2019-01-14T09:32:46.029Z,99544.16
2019-01-14T09:35:14.583Z,99546.30
2019-01-14T09:37:43.233Z,99551.20
2019-01-14T09:40:15.889Z,99553.09
2019-01-14T09:42:44.554Z,99555.78
2019-01-14T09:45:13.377Z,99557.95
2019-01-14T09:47:42.164Z,99556.88
2019-01-14T09:50:13.278Z,99552.77
2019-01-14T09:52:42.096Z,99565.00
2019-01-14T09:55:16.028Z,99553.31
2019-01-14T09:57:46.567Z,99557.02
2019-01-14T10:00:15.355Z,99557.83
2019-01-14T10:02:44.502Z,99557.63
2019-01-14T10:05:16.991Z,99555.41
2019-01-14T10:07:46.401Z,99557.73
2019-01-14T10:10:16.892Z,99558.02
2019-01-14T10:12:45.642Z,99551.44
2019-01-14T10:15:19.506Z,99555.78
2019-01-14T10:17:50.300Z,99555.61
2019-01-14T10:20:18.944Z,99548.98
2019-01-14T10:22:47.628Z,99559.36
2019-01-14T10:25:16.235Z,99551.27
2019-01-14T10:27:44.840Z,99550.02
2019-01-14T10:30:18.484Z,99558.60
2019-01-14T10:32:47.717Z,99546.47
2019-01-14T10:35:16.355Z,99507.02
2019-01-14T10:37:45.057Z,99501.50
2019-01-14T10:40:17.439Z,99487.60
2019-01-14T10:42:46.147Z,99472.34
2019-01-14T10:45:20.260Z,99478.25
2019-01-14T10:47:49.162Z,99460.27
2019-01-14T10:50:18.099Z,99468.40
2019-01-14T10:52:46.809Z,99514.97
2019-01-14T10:55:16.114Z,99505.54
2019-01-14T10:57:45.700Z,99494.80
2019-01-14T11:00:19.705Z,99489.47
2019-01-14T11:02:50.591Z,99490.83
2019-01-14T11:05:23.500Z,99493.34
2019-01-14T11:07:52.508Z,99515.63
2019-01-14T11:10:21.443Z,99543.24
2019-01-14T11:12:50.692Z,99551.85
2019-01-14T11:15:21.649Z,99551.86
2019-01-14T11:17:50.517Z,99561.50
2019-01-14T11:20:24.971Z,99575.64
2019-01-14T11:22:53.865Z,99566.41
2019-01-14T11:25:22.493Z,99553.92
2019-01-14T11:27:51.935Z,99576.73
2019-01-14T11:30:25.832Z,99585.30
2019-01-14T11:32:54.495Z,99586.62
2019-01-14T11:35:23.199Z,99593.41
2019-01-14T11:37:52.028Z,99577.05
2019-01-14T11:40:27.233Z,99585.21
2019-01-14T11:42:55.975Z,99597.72
2019-01-14T11:45:24.474Z,99570.16
2019-01-14T11:47:53.230Z,99622.80
2019-01-14T11:50:22.430Z,99607.20
2019-01-14T11:52:51.259Z,99608.86
2019-01-14T11:55:20.680Z,99614.88
2019-01-14T11:57:51.702Z,99612.75
2019-01-14T12:00:23.289Z,99624.75
2019-01-14T12:02:52.520Z,99630.44
2019-01-14T12:05:22.185Z,99639.16
2019-01-14T12:07:51.292Z,99634.85
2019-01-14T12:10:20.103Z,99663.05
2019-01-14T12:12:48.815Z,99649.22
2019-01-14T12:15:20.524Z,99664.93
2019-01-14T12:17:49.713Z,99657.89
2019-01-14T12:20:18.539Z,99653.26
2019-01-14T12:22:48.566Z,99645.94
2019-01-14T12:25:17.150Z,99639.72
2019-01-14T12:27:45.888Z,99634.02
2019-01-14T12:30:25.493Z,99654.84
2019-01-14T12:32:54.253Z,99647.58
2019-01-14T12:35:22.832Z,99641.58
2019-01-14T12:37:51.675Z,99642.67
2019-01-14T12:40:20.544Z,99644.61
2019-01-14T12:42:49.337Z,99651.36
2019-01-14T12:45:19.760Z,99650.00
2019-01-14T12:47:49.031Z,99658.37
2019-01-14T12:50:23.375Z,99663.02
2019-01-14T12:52:53.645Z,99663.84
2019-01-14T12:55:22.544Z,99675.23
2019-01-14T12:57:51.413Z,99683.91
2019-01-14T13:00:43.958Z,99698.28
2019-01-14T13:03:13.106Z,99685.27
2019-01-14T13:05:41.752Z,99698.58
2019-01-14T13:08:12.232Z,99704.81
2019-01-14T13:10:42.684Z,99697.48
2019-01-14T13:13:11.413Z,99724.03
2019-01-14T13:15:41.350Z,99717.54
2019-01-14T13:18:14.458Z,99711.30
2019-01-14T13:20:43.403Z,99715.10
2019-01-14T13:23:12.078Z,99714.84
2019-01-14T13:25:41.181Z,99745.46
2019-01-14T13:28:10.872Z,99733.53
2019-01-14T13:30:44.353Z,99734.34
2019-01-14T13:33:13.474Z,99727.01
2019-01-14T13:35:42.357Z,99733.22
2019-01-14T13:38:11.928Z,99741.59
2019-01-14T13:40:41.759Z,99732.90
2019-01-14T13:43:11.078Z,99748.62
2019-01-14T13:45:39.931Z,99747.30
2019-01-14T13:48:11.423Z,99766.80
2019-01-14T13:50:42.237Z,99773.33
2019-01-14T13:53:11.172Z,99792.67
2019-01-14T13:55:39.838Z,99793.66
2019-01-14T13:58:08.601Z,99802.06
2019-01-14T14:00:38.033Z,99811.52
2019-01-14T14:03:07.384Z,99808.63
2019-01-14T14:05:36.065Z,99810.16
2019-01-14T14:08:05.157Z,99815.12
2019-01-14T14:10:34.143Z,99834.66
2019-01-14T14:13:04.217Z,99846.17
2019-01-14T14:15:33.027Z,99842.88
2019-01-14T14:18:02.234Z,99861.63
2019-01-14T14:20:30.815Z,99857.30
2019-01-14T14:22:59.763Z,99861.52
2019-01-14T14:25:28.502Z,99864.33
2019-01-14T14:27:57.550Z,99872.39
2019-01-14T14:30:32.631Z,99871.72
2019-01-14T14:33:01.800Z,99878.23
2019-01-14T14:35:31.025Z,99878.74
2019-01-14T14:38:01.638Z,99898.17
2019-01-14T14:40:30.519Z,99908.99
2019-01-14T14:42:59.356Z,99903.23
2019-01-14T14:45:28.553Z,99904.75
2019-01-14T14:47:57.963Z,99915.01
2019-01-14T14:50:26.843Z,99913.33
2019-01-14T14:52:59.438Z,99929.84
2019-01-14T14:55:28.193Z,99935.78
2019-01-14T14:57:56.862Z,99933.61
2019-01-14T15:00:25.841Z,99942.47
2019-01-14T15:02:54.606Z,99944.34
2019-01-14T15:05:23.396Z,99951.06
2019-01-14T15:07:52.050Z,99971.59
2019-01-14T15:10:22.799Z,99965.36
2019-01-14T15:12:51.635Z,99971.02
2019-01-14T15:15:22.408Z,99970.96
2019-01-14T15:17:52.406Z,99980.89
2019-01-14T15:20:22.747Z,99989.83
2019-01-14T15:22:53.143Z,100001.08
2019-01-14T15:25:22.129Z,99997.84
2019-01-14T15:27:51.136Z,100001.59
2019-01-14T15:30:23.121Z,100015.59
2019-01-14T15:32:52.174Z,100008.94
2019-01-14T15:35:21.533Z,100022.05
2019-01-14T15:37:50.610Z,100027.09
2019-01-14T15:40:21.194Z,100030.92
2019-01-14T15:42:52.958Z,100045.67
2019-01-14T15:45:24.622Z,100043.20
2019-01-14T15:47:55.503Z,100054.28
2019-01-14T15:50:24.386Z,100064.59
2019-01-14T15:52:53.495Z,100063.69
2019-01-14T15:55:25.800Z,100063.98
2019-01-14T15:57:56.737Z,100074.73
2019-01-14T16:00:27.442Z,100069.80
2019-01-14T16:02:57.712Z,100075.70
2019-01-14T16:05:27.184Z,100074.75
2019-01-14T16:07:56.832Z,100083.23
2019-01-14T16:10:26.583Z,100088.03
2019-01-14T16:12:55.376Z,100094.77
2019-01-14T16:15:27.047Z,100099.95
2019-01-14T16:17:56.097Z,100099.37
2019-01-14T16:20:25.791Z,100115.84
2019-01-14T16:22:55.316Z,100108.88
2019-01-14T16:25:26.448Z,100116.61
2019-01-14T16:27:55.546Z,100122.31
2019-01-14T16:30:25.108Z,100121.41
2019-01-14T16:32:54.300Z,100135.95
2019-01-14T16:35:24.079Z,100127.27
2019-01-14T16:37:52.908Z,100126.67
2019-01-14T16:40:22.216Z,100127.58
2019-01-14T16:42:51.869Z,100139.25
2019-01-14T16:45:22.934Z,100146.77
2019-01-14T16:47:51.959Z,100148.13
2019-01-14T16:50:20.933Z,100149.02
2019-01-14T16:52:50.399Z,100142.41
2019-01-14T16:55:20.790Z,100152.16
2019-01-14T16:57:50.635Z,100146.19
2019-01-14T17:00:19.606Z,100149.23
2019-01-14T17:02:51.370Z,100145.92
2019-01-14T17:05:20.062Z,100151.23
2019-01-14T17:07:48.848Z,100147.92
2019-01-14T17:10:17.483Z,100150.59
2019-01-14T17:12:46.180Z,100147.72
2019-01-14T17:15:15.431Z,100148.03
2019-01-14T17:17:44.294Z,100152.67
2019-01-14T17:20:20.037Z,100164.68
2019-01-14T17:22:48.806Z,100161.51
2019-01-14T17:25:17.511Z,100157.11
2019-01-14T17:27:46.913Z,100166.85
2019-01-14T17:30:16.730Z,100161.53
2019-01-14T17:32:46.449Z,100169.41
2019-01-14T17:35:15.691Z,100170.43
2019-01-14T17:37:45.446Z,100178.97
2019-01-14T17:40:17.091Z,100182.67
2019-01-14T17:42:45.897Z,100188.59
2019-01-14T17:45:15.756Z,100196.45
2019-01-14T17:47:45.087Z,100198.31
2019-01-14T17:50:16.533Z,100202.06
2019-01-14T17:52:45.436Z,100216.56
2019-01-14T17:55:15.444Z,100213.19
2019-01-14T17:57:44.307Z,100217.53
2019-01-14T18:00:16.331Z,100221.38
2019-01-14T18:02:46.224Z,100228.86
2019-01-14T18:05:14.956Z,100228.92
2019-01-14T18:07:44.116Z,100232.80
2019-01-14T18:10:15.472Z,100232.47
2019-01-14T18:12:44.862Z,100243.77
2019-01-14T18:15:17.903Z,100244.85
2019-01-14T18:17:47.142Z,100234.22
2019-01-14T18:20:18.053Z,100238.83
2019-01-14T18:22:46.973Z,100245.38
2019-01-14T18:25:16.639Z,100252.95
2019-01-14T18:27:45.507Z,100241.30
2019-01-14T18:30:18.759Z,100251.70
2019-01-14T18:32:47.728Z,100250.52
2019-01-14T18:35:17.603Z,100257.06
2019-01-14T18:37:46.702Z,100251.87
2019-01-14T18:40:18.814Z,100259.38
2019-01-14T18:42:48.818Z,100257.27
2019-01-14T18:45:18.789Z,100263.32
2019-01-14T18:47:48.677Z,100267.53
2019-01-14T18:50:20.249Z,100271.95
2019-01-14T18:52:49.270Z,100276.43
2019-01-14T18:55:18.179Z,100281.66
2019-01-14T18:57:47.280Z,100291.28
2019-01-14T19:00:20.919Z,100292.06
2019-01-14T19:02:51.103Z,100292.36
2019-01-14T19:05:21.314Z,100302.57
2019-01-14T19:07:51.031Z,100303.42
2019-01-14T19:10:20.926Z,100298.72
2019-01-14T19:12:51.116Z,100300.40
2019-01-14T19:15:21.544Z,100312.13
2019-01-14T19:17:52.765Z,100314.72
2019-01-14T19:20:26.479Z,100308.20
2019-01-14T19:22:56.014Z,100322.00
2019-01-14T19:25:28.144Z,100316.73
2019-01-14T19:27:59.389Z,100322.09
2019-01-14T19:30:29.890Z,100328.71
2019-01-14T19:33:01.842Z,100326.89
2019-01-14T19:35:33.648Z,100334.21
2019-01-14T19:38:03.262Z,100337.08
2019-01-14T19:40:33.290Z,100330.82
2019-01-14T19:43:02.945Z,100330.81
2019-01-14T19:45:33.167Z,100335.78
2019-01-14T19:48:05.577Z,100345.14
2019-01-14T19:50:36.584Z,100345.44
2019-01-14T19:53:07.254Z,100353.77
2019-01-14T19:55:36.499Z,100352.52
2019-01-14T19:58:05.978Z,100354.72
2019-01-14T20:08:32.864Z,100371.03
2019-01-14T20:11:08.998Z,100379.69
2019-01-14T20:13:32.202Z,100377.32
2019-01-14T20:16:00.908Z,100379.81
2019-01-14T20:18:29.483Z,100389.80
2019-01-14T20:20:58.113Z,100390.48
2019-01-14T20:23:26.663Z,100393.82
2019-01-14T20:25:55.379Z,100401.39
2019-01-14T20:28:23.973Z,100400.41
2019-01-14T20:30:54.742Z,100402.03
2019-01-14T20:33:23.354Z,100399.21
2019-01-14T20:35:52.006Z,100401.30
2019-01-14T20:38:20.597Z,100407.00
2019-01-14T20:40:49.171Z,100413.03
2019-01-14T20:43:17.813Z,100409.59
2019-01-14T20:45:46.399Z,100411.52
2019-01-14T20:48:15.020Z,100410.34
2019-01-14T20:50:43.597Z,100416.58
2019-01-14T20:53:13.826Z,100416.65
2019-01-14T20:55:42.791Z,100411.52
2019-01-14T20:58:11.447Z,100418.75
2019-01-14T21:00:40.484Z,100417.52
2019-01-14T21:03:10.005Z,100417.92
2019-01-14T21:05:38.702Z,100414.02
2019-01-14T21:08:07.336Z,100414.02
2019-01-14T21:10:35.917Z,100415.75
2019-01-14T21:13:04.729Z,100423.16
2019-01-14T21:15:33.361Z,100425.16
2019-01-14T21:18:01.988Z,100421.22
2019-01-14T21:20:30.610Z,100423.80
2019-01-14T21:22:59.221Z,100416.23
2019-01-14T21:25:27.766Z,100421.14
2019-01-14T21:27:56.452Z,100419.12
2019-01-14T21:30:25.871Z,100408.97
2019-01-14T21:32:54.542Z,100408.62
2019-01-14T21:35:23.112Z,100413.28
2019-01-14T21:37:52.171Z,100417.70
2019-01-14T21:40:20.736Z,100416.76
2019-01-14T21:42:49.356Z,100416.69
2019-01-14T21:45:18.003Z,100421.38
2019-01-14T21:47:46.650Z,100422.61
2019-01-14T21:50:19.925Z,100423.92
2019-01-14T21:52:48.635Z,100424.26
2019-01-14T21:55:22.210Z,100426.39
2019-01-14T21:57:50.826Z,100429.47
2019-01-14T22:00:21.329Z,100430.37
2019-01-14T22:02:49.964Z,100423.39
2019-01-14T22:05:18.518Z,100429.13
2019-01-14T22:07:47.181Z,100437.94
2019-01-14T22:10:18.199Z,100434.75
2019-01-14T22:12:46.885Z,100437.37
2019-01-14T22:15:15.873Z,100442.47
2019-01-14T22:17:44.472Z,100433.19
2019-01-14T22:20:19.385Z,100438.67
2019-01-14T22:22:48.165Z,100433.63
2019-01-14T22:25:16.830Z,100434.45
2019-01-14T22:27:45.464Z,100431.47
2019-01-14T22:30:20.202Z,100423.94
2019-01-14T22:32:48.901Z,100430.17
2019-01-14T22:35:17.525Z,100427.89
2019-01-14T22:37:46.193Z,100433.44
2019-01-14T22:40:15.440Z,100430.38
2019-01-14T22:42:44.264Z,100434.06
2019-01-14T22:45:13.610Z,100435.59
2019-01-14T22:47:42.227Z,100443.14
2019-01-14T22:50:16.404Z,100442.66
2019-01-14T22:52:45.089Z,100435.57
2019-01-14T22:55:13.710Z,100446.28
2019-01-14T22:57:42.321Z,100440.61
2019-01-14T23:00:40.102Z,100435.99
2019-01-14T23:03:08.796Z,100445.06
2019-01-14T23:05:37.344Z,100441.30
2019-01-14T23:08:06.026Z,100440.17
2019-01-14T23:10:34.572Z,100439.81
2019-01-14T23:13:03.181Z,100439.36
2019-01-14T23:15:31.734Z,100436.45
2019-01-14T23:18:00.343Z,100440.02
2019-01-14T23:20:28.897Z,100436.99
2019-01-14T23:22:57.489Z,100432.97
2019-01-14T23:25:26.063Z,100435.58
2019-01-14T23:27:54.684Z,100431.42
2019-01-14T23:30:23.247Z,100442.62
2019-01-14T23:32:51.884Z,100431.34
2019-01-14T23:35:20.524Z,100434.16
2019-01-14T23:37:49.148Z,100429.67
2019-01-14T23:40:17.724Z,100429.20
2019-01-14T23:42:46.321Z,100427.09
2019-01-14T23:45:14.965Z,100436.44
2019-01-14T23:47:43.644Z,100440.47
2019-01-14T23:50:12.389Z,100435.61
2019-01-14T23:52:41.053Z,100436.87
2019-01-14T23:55:09.753Z,100441.41
2019-01-14T23:57:38.361Z,100444.11
